Time;durP1;ratioP1;P1;durP2;ratioP2;P2;SDS_P1;SDS_P2;PMS_P1;PMS_P2;Temp;Humidity;BMP_temperature;BMP_pressure;BME280_temperature;BME280_humidity;BME280_pressure;Samples;Min_cycle;Max_cycle;Signal;HPM_P1;HPM_P2
2021/01/08 00:01:29;;;;;;;21.35;12.57;;;;;;;;;;6332291;22;20003;-75
2021/01/08 00:03:55;;;;;;;19.30;12.18;;;;;;;;;;6332173;22;20002;-75
2021/01/08 00:06:21;;;;;;;19.15;11.95;;;;;;;;;;6304630;22;20072;-74
2021/01/08 00:08:47;;;;;;;20.45;12.07;;;;;;;;;;6332184;22;20013;-74
2021/01/08 00:11:20;;;;;;;22.50;12.73;;;;;;;;;;6332003;22;20003;-75
2021/01/08 00:13:48;;;;;;;21.55;12.77;;;;;;;;;;6331865;22;19999;-75
2021/01/08 00:16:14;;;;;;;21.20;12.38;;;;;;;;;;6331452;22;19999;-76
2021/01/08 00:18:40;;;;;;;22.13;12.90;;;;;;;;;;6332420;22;19999;-75
2021/01/08 00:21:06;;;;;;;20.25;12.35;;;;;;;;;;6332758;22;20007;-75
2021/01/08 00:23:32;;;;;;;21.27;12.77;;;;;;;;;;6331717;22;20010;-75
2021/01/08 00:25:58;;;;;;;21.65;12.45;;;;;;;;;;6303421;22;20002;-75
2021/01/08 00:28:24;;;;;;;22.63;12.60;;;;;;;;;;6332330;22;20002;-75
2021/01/08 00:30:50;;;;;;;21.50;13.25;;;;;;;;;;6331903;22;20006;-75
2021/01/08 00:33:16;;;;;;;21.52;12.63;;;;;;;;;;6304799;22;20405;-75
2021/01/08 00:35:42;;;;;;;21.13;12.40;;;;;;;;;;6331326;22;19999;-75
2021/01/08 00:38:08;;;;;;;26.42;14.43;;;;;;;;;;6303932;22;20330;-75
2021/01/08 00:40:35;;;;;;;21.15;13.15;;;;;;;;;;6331385;22;20030;-75
2021/01/08 00:43:01;;;;;;;22.58;13.55;;;;;;;;;;6332672;22;20041;-76
2021/01/08 00:45:27;;;;;;;21.13;12.73;;;;;;;;;;6331409;22;20002;-74
2021/01/08 00:47:53;;;;;;;21.38;12.75;;;;;;;;;;6332042;22;20037;-75
2021/01/08 00:50:19;;;;;;;22.30;13.57;;;;;;;;;;6332004;22;20010;-75
2021/01/08 00:52:45;;;;;;;22.48;13.70;;;;;;;;;;6331656;22;19995;-76
2021/01/08 00:55:12;;;;;;;24.17;14.43;;;;;;;;;;6303388;22;20479;-75
2021/01/08 00:57:38;;;;;;;25.15;13.75;;;;;;;;;;6332051;22;19995;-74
2021/01/08 01:00:05;;;;;;;20.85;13.07;;;;;;;;;;6331684;22;20007;-75
2021/01/08 01:02:33;;;;;;;20.58;12.65;;;;;;;;;;6303765;22;20347;-75
2021/01/08 01:04:59;;;;;;;20.27;12.32;;;;;;;;;;6303652;22;20006;-75
2021/01/08 01:07:25;;;;;;;22.20;12.73;;;;;;;;;;6303940;22;20010;-74
2021/01/08 01:09:51;;;;;;;21.17;13.00;;;;;;;;;;6331913;22;20048;-75
2021/01/08 01:12:17;;;;;;;21.20;13.35;;;;;;;;;;6331667;22;20006;-75
2021/01/08 01:14:43;;;;;;;21.45;13.20;;;;;;;;;;6330844;22;19995;-75
2021/01/08 01:17:09;;;;;;;21.38;13.60;;;;;;;;;;6304144;22;20006;-74
2021/01/08 01:19:35;;;;;;;23.02;13.90;;;;;;;;;;6331889;22;19999;-74
2021/01/08 01:22:01;;;;;;;23.00;13.35;;;;;;;;;;6304076;22;19994;-75
2021/01/08 01:24:27;;;;;;;20.25;12.30;;;;;;;;;;6331010;22;20074;-76
2021/01/08 01:26:54;;;;;;;19.83;11.80;;;;;;;;;;6304532;22;20332;-74
2021/01/08 01:29:21;;;;;;;21.00;13.15;;;;;;;;;;6304501;22;20367;-74
2021/01/08 01:31:46;;;;;;;21.48;12.38;;;;;;;;;;6331915;22;20011;-74
2021/01/08 01:34:12;;;;;;;20.73;12.55;;;;;;;;;;6330261;22;20030;-75
2021/01/08 01:36:39;;;;;;;22.73;13.13;;;;;;;;;;6304108;22;19999;-76
2021/01/08 01:39:05;;;;;;;17.73;11.23;;;;;;;;;;6331863;22;19999;-74
2021/01/08 01:41:31;;;;;;;17.48;11.10;;;;;;;;;;6331606;22;20045;-75
2021/01/08 01:43:57;;;;;;;20.38;12.02;;;;;;;;;;6331575;22;20006;-75
2021/01/08 01:46:23;;;;;;;21.95;12.10;;;;;;;;;;6303219;22;20007;-75
2021/01/08 01:48:49;;;;;;;18.98;11.43;;;;;;;;;;6331883;22;20026;-76
2021/01/08 01:51:16;;;;;;;21.30;11.88;;;;;;;;;;6331402;22;20010;-75
2021/01/08 01:53:42;;;;;;;21.67;12.52;;;;;;;;;;6331516;22;20003;-75
2021/01/08 01:56:08;;;;;;;23.38;12.27;;;;;;;;;;6331033;22;19999;-75
2021/01/08 01:58:35;;;;;;;20.08;11.43;;;;;;;;;;6331761;22;19995;-75
2021/01/08 02:01:01;;;;;;;20.98;12.63;;;;;;;;;;6330891;22;20498;-76
2021/01/08 02:03:30;;;;;;;22.92;12.35;;;;;;;;;;6331504;22;20003;-75
2021/01/08 02:05:58;;;;;;;23.05;12.75;;;;;;;;;;6303037;22;20068;-76
2021/01/08 02:08:25;;;;;;;20.35;11.23;;;;;;;;;;6331085;22;20453;-75
2021/01/08 02:10:57;;;;;;;22.17;12.82;;;;;;;;;;6331187;22;19999;-75
2021/01/08 02:13:50;;;;;;;20.73;11.90;;;;;;;;;;6303792;22;20003;-75
2021/01/08 02:16:16;;;;;;;22.20;12.35;;;;;;;;;;6245203;22;20030;-74
2021/01/08 02:18:45;;;;;;;19.35;11.55;;;;;;;;;;6303733;22;20006;-75
2021/01/08 02:21:13;;;;;;;19.65;10.98;;;;;;;;;;6320219;22;20007;-75
2021/01/08 02:23:42;;;;;;;20.25;11.48;;;;;;;;;;6303500;22;20331;-76
2021/01/08 02:26:08;;;;;;;18.60;11.05;;;;;;;;;;6330832;22;20007;-75
2021/01/08 02:28:34;;;;;;;19.27;11.38;;;;;;;;;;6331195;22;20534;-75
2021/01/08 02:31:00;;;;;;;19.90;11.32;;;;;;;;;;6331196;22;20497;-75
2021/01/08 02:33:26;;;;;;;20.80;11.57;;;;;;;;;;6331386;22;20038;-75
2021/01/08 02:35:53;;;;;;;18.65;11.45;;;;;;;;;;6330317;22;20037;-75
2021/01/08 02:38:20;;;;;;;22.48;12.48;;;;;;;;;;6331066;22;20044;-75
2021/01/08 02:40:47;;;;;;;20.23;12.07;;;;;;;;;;6303618;22;20086;-74
2021/01/08 02:43:15;;;;;;;16.90;9.88;;;;;;;;;;6331350;22;20007;-75
2021/01/08 02:45:41;;;;;;;20.80;11.15;;;;;;;;;;6330137;22;20055;-75
2021/01/08 02:48:07;;;;;;;19.73;11.52;;;;;;;;;;6330974;22;20026;-75
2021/01/08 02:50:33;;;;;;;17.75;10.32;;;;;;;;;;6318721;22;20003;-74
2021/01/08 02:53:03;;;;;;;18.52;10.30;;;;;;;;;;6330750;22;19999;-74
2021/01/08 02:55:30;;;;;;;19.90;10.63;;;;;;;;;;6330481;22;20002;-75
2021/01/08 02:57:57;;;;;;;17.40;10.93;;;;;;;;;;6331102;22;19995;-76
2021/01/08 03:00:23;;;;;;;16.52;9.85;;;;;;;;;;6329169;22;20030;-75
2021/01/08 03:02:49;;;;;;;16.27;9.52;;;;;;;;;;6334550;22;20447;-75
2021/01/08 03:05:15;;;;;;;16.90;9.68;;;;;;;;;;6332169;22;20128;-75
2021/01/08 03:07:42;;;;;;;16.05;9.40;;;;;;;;;;6332735;22;20091;-76
2021/01/08 03:10:08;;;;;;;16.35;10.10;;;;;;;;;;6334303;22;20075;-75
2021/01/08 03:12:36;;;;;;;18.77;10.15;;;;;;;;;;6332459;22;20263;-75
2021/01/08 03:15:02;;;;;;;;;;;;;;;;;;6332434;22;20003;-77
2021/01/08 03:17:28;;;;;;;17.67;9.07;;;;;;;;;;6332439;22;20239;-75
2021/01/08 03:19:54;;;;;;;14.93;8.55;;;;;;;;;;6332439;22;20006;-76
2021/01/08 03:22:20;;;;;;;15.13;9.10;;;;;;;;;;6334101;22;20424;-76
2021/01/08 03:24:46;;;;;;;15.80;8.98;;;;;;;;;;6333323;22;20027;-77
2021/01/08 03:27:12;;;;;;;13.65;8.27;;;;;;;;;;6334005;22;19995;-76
2021/01/08 03:29:38;;;;;;;12.77;7.97;;;;;;;;;;6335303;22;20037;-75
2021/01/08 03:32:04;;;;;;;12.25;7.53;;;;;;;;;;6333879;22;20385;-76
2021/01/08 03:34:30;;;;;;;12.43;7.15;;;;;;;;;;6335125;22;19999;-75
2021/01/08 03:36:56;;;;;;;11.88;7.18;;;;;;;;;;6335877;22;20458;-76
2021/01/08 03:39:22;;;;;;;12.38;7.07;;;;;;;;;;6334170;22;19998;-76
2021/01/08 03:41:48;;;;;;;11.27;6.75;;;;;;;;;;6335751;22;20002;-75
2021/01/08 03:44:14;;;;;;;10.52;6.20;;;;;;;;;;6335004;22;19998;-75
2021/01/08 03:46:40;;;;;;;10.57;7.00;;;;;;;;;;6333785;22;20106;-74
2021/01/08 03:49:06;;;;;;;11.45;6.85;;;;;;;;;;6333601;22;20072;-75
2021/01/08 03:51:33;;;;;;;11.30;6.73;;;;;;;;;;6335595;22;20026;-76
2021/01/08 03:53:59;;;;;;;11.43;6.57;;;;;;;;;;6335355;22;20210;-75
2021/01/08 03:56:25;;;;;;;12.38;7.03;;;;;;;;;;6335300;22;20006;-77
2021/01/08 03:58:51;;;;;;;15.00;6.93;;;;;;;;;;6308084;22;20010;-75
2021/01/08 04:01:17;;;;;;;12.15;7.43;;;;;;;;;;6335326;22;20010;-75
2021/01/08 04:03:43;;;;;;;12.52;6.93;;;;;;;;;;6304932;22;20007;-75
2021/01/08 04:06:09;;;;;;;11.27;7.20;;;;;;;;;;6332551;22;20428;-75
2021/01/08 04:08:35;;;;;;;12.88;7.32;;;;;;;;;;6332725;22;20003;-76
2021/01/08 04:11:01;;;;;;;12.27;7.45;;;;;;;;;;6331962;22;20010;-75
2021/01/08 04:13:28;;;;;;;11.85;6.78;;;;;;;;;;6332055;22;20081;-76
2021/01/08 04:15:54;;;;;;;12.70;7.75;;;;;;;;;;6303527;22;20421;-76
2021/01/08 04:18:20;;;;;;;11.75;7.30;;;;;;;;;;6332369;22;20447;-76
2021/01/08 04:20:46;;;;;;;11.55;6.85;;;;;;;;;;6330030;22;20002;-76
2021/01/08 04:23:12;;;;;;;12.38;7.65;;;;;;;;;;6331962;22;20392;-74
2021/01/08 04:25:38;;;;;;;14.57;8.23;;;;;;;;;;6331537;22;20006;-75
2021/01/08 04:28:04;;;;;;;13.50;7.63;;;;;;;;;;6331942;22;20005;-75
2021/01/08 04:30:30;;;;;;;12.30;7.50;;;;;;;;;;6331830;22;20006;-76
2021/01/08 04:32:56;;;;;;;12.52;7.65;;;;;;;;;;6331896;22;19991;-75
2021/01/08 04:35:22;;;;;;;13.68;8.10;;;;;;;;;;6330885;22;20026;-75
2021/01/08 04:37:48;;;;;;;13.10;7.88;;;;;;;;;;6304317;22;20010;-75
2021/01/08 04:40:14;;;;;;;13.30;7.75;;;;;;;;;;6331784;22;20003;-75
2021/01/08 04:42:40;;;;;;;14.98;8.32;;;;;;;;;;6331641;22;20007;-75
2021/01/08 04:45:06;;;;;;;13.73;8.23;;;;;;;;;;6330935;22;20021;-75
2021/01/08 04:47:33;;;;;;;14.10;8.23;;;;;;;;;;6332081;22;20026;-77
2021/01/08 04:50:02;;;;;;;14.30;8.13;;;;;;;;;;6331300;22;20011;-76
2021/01/08 04:52:28;;;;;;;14.63;8.43;;;;;;;;;;6303981;22;20056;-76
2021/01/08 04:54:54;;;;;;;15.10;8.15;;;;;;;;;;6331111;22;19991;-74
2021/01/08 04:57:22;;;;;;;13.27;7.53;;;;;;;;;;6331873;22;19998;-76
2021/01/08 04:59:49;;;;;;;13.38;7.80;;;;;;;;;;6304032;22;20078;-75
2021/01/08 05:02:15;;;;;;;13.25;7.70;;;;;;;;;;6304261;22;20027;-74
2021/01/08 05:04:41;;;;;;;12.20;7.43;;;;;;;;;;6330868;22;20038;-75
2021/01/08 05:07:07;;;;;;;13.18;7.38;;;;;;;;;;6331203;22;20023;-75
2021/01/08 05:09:33;;;;;;;12.15;7.20;;;;;;;;;;6331787;22;20025;-75
2021/01/08 05:12:00;;;;;;;11.93;7.22;;;;;;;;;;6331355;22;20002;-76
2021/01/08 05:14:27;;;;;;;12.38;7.13;;;;;;;;;;6302930;22;20009;-75
2021/01/08 05:16:55;;;;;;;12.27;7.18;;;;;;;;;;6303883;22;20465;-76
2021/01/08 05:19:24;;;;;;;13.05;7.28;;;;;;;;;;6331455;22;20023;-74
2021/01/08 05:21:50;;;;;;;;;;;;;;;;;;6332003;22;20376;-75
2021/01/08 05:24:16;;;;;;;16.95;8.98;;;;;;;;;;6303604;22;19955;-75
2021/01/08 05:26:42;;;;;;;19.17;10.52;;;;;;;;;;6303728;22;20037;-76
2021/01/08 05:29:08;;;;;;;18.65;9.93;;;;;;;;;;6331242;22;20003;-76
2021/01/08 05:31:34;;;;;;;16.30;9.45;;;;;;;;;;6303897;22;20010;-75
2021/01/08 05:34:01;;;;;;;14.50;8.43;;;;;;;;;;6330690;22;19999;-77
2021/01/08 05:36:27;;;;;;;12.43;7.55;;;;;;;;;;6331041;22;20438;-75
2021/01/08 05:38:58;;;;;;;11.70;6.95;;;;;;;;;;6304182;22;20002;-75
2021/01/08 05:41:24;;;;;;;11.07;6.45;;;;;;;;;;6303108;22;20035;-75
2021/01/08 05:43:50;;;;;;;10.63;6.65;;;;;;;;;;6303501;22;20003;-75
2021/01/08 05:46:16;;;;;;;10.23;6.25;;;;;;;;;;6330520;22;20436;-75
2021/01/08 05:48:47;;;;;;;10.30;6.50;;;;;;;;;;6303276;22;20014;-76
2021/01/08 05:51:14;;;;;;;10.80;6.53;;;;;;;;;;6330385;22;19999;-76
2021/01/08 05:53:40;;;;;;;12.05;6.88;;;;;;;;;;6331760;22;20458;-76
2021/01/08 05:56:08;;;;;;;11.07;6.30;;;;;;;;;;6329874;22;19994;-76
2021/01/08 05:58:34;;;;;;;10.50;6.22;;;;;;;;;;6330911;22;19995;-75
2021/01/08 06:01:01;;;;;;;13.48;6.75;;;;;;;;;;6303236;22;20056;-76
2021/01/08 06:03:27;;;;;;;11.40;6.93;;;;;;;;;;6331070;22;20327;-75
2021/01/08 06:05:58;;;;;;;12.95;6.63;;;;;;;;;;6302272;22;20007;-75
2021/01/08 06:08:38;;;;;;;10.80;6.35;;;;;;;;;;6302965;22;20054;-77
2021/01/08 06:11:07;;;;;;;11.15;6.18;;;;;;;;;;6330454;22;20056;-75
2021/01/08 06:13:34;;;;;;;12.30;7.00;;;;;;;;;;6303149;22;19995;-74
2021/01/08 06:16:04;;;;;;;11.82;6.35;;;;;;;;;;6330386;22;20002;-74
2021/01/08 06:18:34;;;;;;;11.30;6.97;;;;;;;;;;6302411;22;20087;-75
2021/01/08 06:21:07;;;;;;;11.95;6.70;;;;;;;;;;6302888;22;20007;-75
2021/01/08 06:23:37;;;;;;;11.55;6.53;;;;;;;;;;6330290;22;19999;-78
2021/01/08 06:26:04;;;;;;;10.02;6.50;;;;;;;;;;6301675;22;20086;-76
2021/01/08 06:28:33;;;;;;;10.30;6.60;;;;;;;;;;6330917;22;19999;-77
2021/01/08 06:31:02;;;;;;;11.20;6.43;;;;;;;;;;6330477;22;19998;-74
2021/01/08 06:33:31;;;;;;;10.98;6.75;;;;;;;;;;6330455;22;20148;-77
2021/01/08 06:36:04;;;;;;;11.90;7.25;;;;;;;;;;6330049;22;19994;-75
2021/01/08 06:38:37;;;;;;;11.70;6.82;;;;;;;;;;6303291;22;20006;-75
2021/01/08 06:41:06;;;;;;;12.10;7.40;;;;;;;;;;6330299;22;20074;-76
2021/01/08 06:43:34;;;;;;;15.57;8.25;;;;;;;;;;6303195;22;20065;-77
2021/01/08 06:46:02;;;;;;;18.73;10.13;;;;;;;;;;6302130;22;20014;-76
2021/01/08 06:48:29;;;;;;;15.50;9.07;;;;;;;;;;6330936;22;20035;-77
2021/01/08 06:51:00;;;;;;;11.65;7.55;;;;;;;;;;6330513;22;20006;-75
2021/01/08 06:53:28;;;;;;;13.32;7.18;;;;;;;;;;6330224;22;19999;-74
2021/01/08 06:55:55;;;;;;;13.68;7.10;;;;;;;;;;6329582;22;20520;-75
2021/01/08 06:58:22;;;;;;;12.82;7.45;;;;;;;;;;6330746;22;20002;-75
2021/01/08 07:00:49;;;;;;;10.87;6.27;;;;;;;;;;6330950;22;20006;-75
2021/01/08 07:03:19;;;;;;;10.05;6.18;;;;;;;;;;6330554;22;20513;-76
2021/01/08 07:05:46;;;;;;;11.85;6.68;;;;;;;;;;6331400;22;19999;-75
2021/01/08 07:08:12;;;;;;;12.80;7.10;;;;;;;;;;6332242;22;19999;-75
2021/01/08 07:10:38;;;;;;;11.15;7.22;;;;;;;;;;6304121;22;20064;-75
2021/01/08 07:13:04;;;;;;;12.20;7.45;;;;;;;;;;6304670;22;20010;-75
2021/01/08 07:15:31;;;;;;;14.45;8.82;;;;;;;;;;6303974;22;20002;-75
2021/01/08 07:17:59;;;;;;;12.98;7.35;;;;;;;;;;6332181;22;20002;-75
2021/01/08 07:20:25;;;;;;;12.98;7.47;;;;;;;;;;6332082;22;20006;-75
2021/01/08 07:22:55;;;;;;;13.13;7.35;;;;;;;;;;6304717;22;20007;-75
2021/01/08 07:25:22;;;;;;;13.75;8.15;;;;;;;;;;6303476;22;20377;-75
2021/01/08 07:27:49;;;;;;;13.57;7.32;;;;;;;;;;6305319;22;20038;-75
2021/01/08 07:30:15;;;;;;;12.63;7.72;;;;;;;;;;6332456;22;19995;-75
2021/01/08 07:32:44;;;;;;;15.15;7.75;;;;;;;;;;6304337;22;20052;-75
2021/01/08 07:35:22;;;;;;;12.20;7.35;;;;;;;;;;6304272;22;20332;-76
2021/01/08 07:38:01;;;;;;;12.30;7.63;;;;;;;;;;6332650;22;20608;-75
2021/01/08 07:40:28;;;;;;;11.82;7.50;;;;;;;;;;6304682;22;20535;-74
2021/01/08 07:42:58;;;;;;;12.85;7.88;;;;;;;;;;6332057;22;20068;-75
2021/01/08 07:45:43;;;;;;;13.40;8.88;;;;;;;;;;6303169;22;20434;-76
2021/01/08 07:48:38;;;;;;;13.82;8.70;;;;;;;;;;6331916;22;20064;-75
2021/01/08 07:51:05;;;;;;;15.73;9.05;;;;;;;;;;6327096;22;20007;-75
2021/01/08 07:53:43;;;;;;;13.65;9.05;;;;;;;;;;6332007;22;20006;-73
2021/01/08 07:56:13;;;;;;;12.90;7.90;;;;;;;;;;6331567;22;20584;-75
2021/01/08 07:58:39;;;;;;;12.73;8.48;;;;;;;;;;6332116;22;20009;-75
2021/01/08 08:01:06;;;;;;;14.00;8.02;;;;;;;;;;6304002;22;20514;-74
2021/01/08 08:03:32;;;;;;;13.23;8.77;;;;;;;;;;6304246;22;20203;-74
2021/01/08 08:06:02;;;;;;;12.20;7.90;;;;;;;;;;6331044;22;20015;-74
2021/01/08 08:08:28;;;;;;;12.52;7.65;;;;;;;;;;6303948;22;20005;-75
2021/01/08 08:10:54;;;;;;;13.70;7.82;;;;;;;;;;6327775;22;20014;-75
2021/01/08 08:13:30;;;;;;;15.52;8.18;;;;;;;;;;6331791;22;20048;-75
2021/01/08 08:15:56;;;;;;;15.25;8.50;;;;;;;;;;6331794;22;19995;-75
2021/01/08 08:18:22;;;;;;;14.55;8.77;;;;;;;;;;6303717;22;20010;-75
2021/01/08 08:20:48;;;;;;;18.35;8.70;;;;;;;;;;6331082;22;20010;-74
2021/01/08 08:23:15;;;;;;;14.07;8.60;;;;;;;;;;6331778;22;20623;-74
2021/01/08 08:25:41;;;;;;;15.93;8.80;;;;;;;;;;6331028;22;19998;-74
2021/01/08 08:28:07;;;;;;;13.75;7.93;;;;;;;;;;6331299;22;20003;-75
2021/01/08 08:30:33;;;;;;;13.63;7.95;;;;;;;;;;6331616;22;20026;-75
2021/01/08 08:33:00;;;;;;;14.10;8.30;;;;;;;;;;6331148;22;20056;-74
2021/01/08 08:35:26;;;;;;;14.32;7.82;;;;;;;;;;6330782;22;20037;-76
2021/01/08 08:37:52;;;;;;;13.50;8.05;;;;;;;;;;6304240;22;20574;-75
2021/01/08 08:40:21;;;;;;;11.57;7.30;;;;;;;;;;6331098;22;20038;-75
2021/01/08 08:42:51;;;;;;;10.68;6.88;;;;;;;;;;6303694;22;20297;-75
2021/01/08 08:45:18;;;;;;;11.80;7.00;;;;;;;;;;6303153;22;20093;-75
2021/01/08 08:47:47;;;;;;;12.07;7.37;;;;;;;;;;6331121;22;19999;-73
2021/01/08 08:50:14;;;;;;;14.88;7.40;;;;;;;;;;6314586;22;20007;-75
2021/01/08 08:52:40;;;;;;;12.53;7.50;;;;;;;;;;6331493;22;20056;-75
2021/01/08 08:55:06;;;;;;;26.98;16.95;;;;;;;;;;6330693;22;20003;-75
2021/01/08 08:57:32;;;;;;;16.30;10.70;;;;;;;;;;6329496;22;19999;-74
2021/01/08 08:59:59;;;;;;;12.65;8.82;;;;;;;;;;6330058;22;20049;-76
2021/01/08 09:02:26;;;;;;;13.40;8.68;;;;;;;;;;6329481;22;20818;-75
2021/01/08 09:04:52;;;;;;;13.30;7.90;;;;;;;;;;6329929;22;20002;-76
2021/01/08 09:07:23;;;;;;;11.15;6.88;;;;;;;;;;6328949;22;20128;-75
2021/01/08 09:09:51;;;;;;;95.18;42.70;;;;;;;;;;6329429;22;20007;-74
2021/01/08 09:12:17;;;;;;;;;;;;;;;;;;6329407;22;20007;-75
2021/01/08 09:14:45;;;;;;;11.73;7.35;;;;;;;;;;6330712;22;20503;-74
2021/01/08 09:17:15;;;;;;;9.77;6.32;;;;;;;;;;6329674;22;20428;-73
2021/01/08 09:19:51;;;;;;;9.73;6.18;;;;;;;;;;6329745;22;20289;-75
2021/01/08 09:22:18;;;;;;;9.25;5.88;;;;;;;;;;6331627;22;20007;-75
2021/01/08 09:24:44;;;;;;;9.13;6.00;;;;;;;;;;6329471;22;19998;-75
2021/01/08 09:27:11;;;;;;;8.43;5.35;;;;;;;;;;6329503;22;20056;-75
2021/01/08 09:29:37;;;;;;;9.68;5.97;;;;;;;;;;6329438;22;20078;-74
2021/01/08 09:32:04;;;;;;;8.35;5.35;;;;;;;;;;6330765;22;20007;-75
2021/01/08 09:34:30;;;;;;;9.07;5.88;;;;;;;;;;6329962;22;20471;-76
2021/01/08 09:36:57;;;;;;;6.55;4.60;;;;;;;;;;6331411;22;20327;-75
2021/01/08 09:39:24;;;;;;;7.72;4.95;;;;;;;;;;6331332;22;20009;-75
2021/01/08 09:41:56;;;;;;;8.20;4.55;;;;;;;;;;6331280;22;20660;-74
2021/01/08 09:44:30;;;;;;;6.85;4.13;;;;;;;;;;6331049;22;20009;-74
2021/01/08 09:46:56;;;;;;;6.15;3.90;;;;;;;;;;6329833;22;20576;-75
2021/01/08 09:49:22;;;;;;;5.82;3.78;;;;;;;;;;6331135;22;20087;-79
2021/01/08 09:51:48;;;;;;;6.43;3.80;;;;;;;;;;6330827;22;20014;-74
2021/01/08 09:54:14;;;;;;;6.38;4.03;;;;;;;;;;6330177;22;20002;-76
2021/01/08 09:56:51;;;;;;;6.10;3.70;;;;;;;;;;6330663;22;19991;-74
2021/01/08 09:59:17;;;;;;;8.30;4.25;;;;;;;;;;6303528;22;20339;-74
2021/01/08 10:01:53;;;;;;;14.40;6.15;;;;;;;;;;6330472;22;20006;-73
2021/01/08 10:04:29;;;;;;;6.10;3.50;;;;;;;;;;6302507;22;20714;-75
2021/01/08 10:06:55;;;;;;;6.38;4.00;;;;;;;;;;6331043;22;20083;-76
2021/01/08 10:09:21;;;;;;;7.10;3.40;;;;;;;;;;6330800;22;20005;-75
2021/01/08 10:11:57;;;;;;;5.55;3.65;;;;;;;;;;6330662;22;20003;-75
2021/01/08 10:14:23;;;;;;;5.22;3.20;;;;;;;;;;6330285;22;20516;-75
2021/01/08 10:16:50;;;;;;;6.43;3.70;;;;;;;;;;6330950;22;19995;-75
2021/01/08 10:19:16;;;;;;;7.20;3.30;;;;;;;;;;6331094;22;20024;-75
2021/01/08 10:21:43;;;;;;;9.38;5.30;;;;;;;;;;6330512;22;20003;-75
2021/01/08 10:24:09;;;;;;;6.25;3.83;;;;;;;;;;6302437;22;20089;-74
2021/01/08 10:26:35;;;;;;;6.00;3.35;;;;;;;;;;6330564;22;20002;-75
2021/01/08 10:29:05;;;;;;;6.13;3.10;;;;;;;;;;6303422;22;20021;-77
2021/01/08 10:31:31;;;;;;;10.07;6.07;;;;;;;;;;6330563;22;20435;-75
2021/01/08 10:34:00;;;;;;;7.15;4.07;;;;;;;;;;6330060;22;20002;-75
2021/01/08 10:36:26;;;;;;;6.78;4.07;;;;;;;;;;6302642;22;20428;-75
2021/01/08 10:38:52;;;;;;;9.77;5.45;;;;;;;;;;6330251;22;19999;-76
2021/01/08 10:41:18;;;;;;;5.43;3.05;;;;;;;;;;6303062;22;20307;-76
2021/01/08 10:43:45;;;;;;;8.07;4.15;;;;;;;;;;6331139;22;20073;-75
2021/01/08 10:46:12;;;;;;;6.40;3.75;;;;;;;;;;6330004;22;20094;-76
2021/01/08 10:48:38;;;;;;;6.73;3.53;;;;;;;;;;6330755;22;20013;-76
2021/01/08 10:51:04;;;;;;;5.75;3.30;;;;;;;;;;6330607;22;20007;-76
2021/01/08 10:53:30;;;;;;;7.07;4.13;;;;;;;;;;6331237;22;20402;-76
2021/01/08 10:55:56;;;;;;;7.07;3.70;;;;;;;;;;6330053;22;20033;-76
2021/01/08 10:58:22;;;;;;;6.60;3.20;;;;;;;;;;6303642;22;20081;-76
2021/01/08 11:00:48;;;;;;;6.45;3.78;;;;;;;;;;6330513;22;20450;-76
2021/01/08 11:03:14;;;;;;;7.80;3.25;;;;;;;;;;6330636;22;20410;-75
2021/01/08 11:05:41;;;;;;;5.38;3.17;;;;;;;;;;6302260;22;20037;-76
2021/01/08 11:08:10;;;;;;;5.20;2.88;;;;;;;;;;6302896;22;20007;-76
2021/01/08 11:10:37;;;;;;;5.68;2.90;;;;;;;;;;6330155;22;20026;-76
2021/01/08 11:13:03;;;;;;;7.22;3.70;;;;;;;;;;6330539;22;20029;-76
2021/01/08 11:15:29;;;;;;;5.70;3.20;;;;;;;;;;6329609;22;19999;-75
2021/01/08 11:17:55;;;;;;;6.30;2.97;;;;;;;;;;6302980;22;20083;-75
2021/01/08 11:20:21;;;;;;;6.80;2.97;;;;;;;;;;6330762;22;20177;-77
2021/01/08 11:22:47;;;;;;;4.47;3.00;;;;;;;;;;6330211;22;20657;-77
2021/01/08 11:25:14;;;;;;;7.35;3.08;;;;;;;;;;6301615;22;20007;-76
2021/01/08 11:27:40;;;;;;;5.25;3.13;;;;;;;;;;6330550;22;19999;-76
2021/01/08 11:30:07;;;;;;;5.55;3.30;;;;;;;;;;6329958;22;20007;-77
2021/01/08 11:32:33;;;;;;;7.90;3.65;;;;;;;;;;6330660;22;20067;-77
2021/01/08 11:34:59;;;;;;;6.10;3.50;;;;;;;;;;6302103;22;20006;-76
2021/01/08 11:37:25;;;;;;;8.65;3.58;;;;;;;;;;6328836;22;20026;-77
2021/01/08 11:39:51;;;;;;;5.18;3.20;;;;;;;;;;6328983;22;19994;-76
2021/01/08 11:42:17;;;;;;;7.97;4.38;;;;;;;;;;6302870;22;20014;-76
2021/01/08 11:44:43;;;;;;;6.88;3.20;;;;;;;;;;6329687;22;20011;-77
2021/01/08 11:47:09;;;;;;;6.88;4.15;;;;;;;;;;6330148;22;20402;-76
2021/01/08 11:49:36;;;;;;;5.32;3.13;;;;;;;;;;6306297;22;20014;-76
2021/01/08 11:52:02;;;;;;;8.63;3.17;;;;;;;;;;6332193;22;20002;-76
2021/01/08 11:54:28;;;;;;;8.50;3.65;;;;;;;;;;6330793;22;19995;-76
2021/01/08 11:56:54;;;;;;;5.43;3.15;;;;;;;;;;6332145;22;20009;-77
2021/01/08 11:59:20;;;;;;;5.05;3.05;;;;;;;;;;6331922;22;20075;-77
2021/01/08 12:01:46;;;;;;;6.40;3.58;;;;;;;;;;6331200;22;20447;-76
2021/01/08 12:04:12;;;;;;;4.85;2.80;;;;;;;;;;6331623;22;20009;-77
2021/01/08 12:06:38;;;;;;;6.13;3.40;;;;;;;;;;6329746;22;20458;-77
2021/01/08 12:09:06;;;;;;;5.90;3.17;;;;;;;;;;6329766;22;20013;-76
2021/01/08 12:11:33;;;;;;;6.47;3.90;;;;;;;;;;6329716;22;20076;-76
2021/01/08 12:13:59;;;;;;;9.20;3.92;;;;;;;;;;6331961;22;19998;-76
2021/01/08 12:16:31;;;;;;;13.63;7.35;;;;;;;;;;6330499;22;20006;-78
2021/01/08 12:18:58;;;;;;;7.95;3.80;;;;;;;;;;6330472;22;20055;-76
2021/01/08 12:21:25;;;;;;;6.55;3.80;;;;;;;;;;6331977;22;20491;-75
2021/01/08 12:23:51;;;;;;;5.63;3.45;;;;;;;;;;6329502;22;20281;-77
2021/01/08 12:26:17;;;;;;;9.77;3.88;;;;;;;;;;6329789;22;20446;-77
2021/01/08 12:28:44;;;;;;;9.15;4.10;;;;;;;;;;6329986;22;20439;-76
2021/01/08 12:31:10;;;;;;;6.70;3.63;;;;;;;;;;6329125;22;20343;-78
2021/01/08 12:33:36;;;;;;;6.18;3.10;;;;;;;;;;6331953;22;20507;-77
2021/01/08 12:36:02;;;;;;;5.70;3.40;;;;;;;;;;6330928;22;19998;-78
2021/01/08 12:38:28;;;;;;;7.80;3.65;;;;;;;;;;6331245;22;20432;-78
2021/01/08 12:40:54;;;;;;;8.35;4.22;;;;;;;;;;6329907;22;20007;-75
2021/01/08 12:43:21;;;;;;;11.15;4.95;;;;;;;;;;6330185;22;20447;-78
2021/01/08 12:45:47;;;;;;;7.60;3.65;;;;;;;;;;6330520;22;19994;-77
2021/01/08 12:48:13;;;;;;;9.75;4.20;;;;;;;;;;6331031;22;20003;-77
2021/01/08 12:50:39;;;;;;;8.05;4.50;;;;;;;;;;6331862;22;20003;-76
2021/01/08 12:53:05;;;;;;;8.65;3.90;;;;;;;;;;6303332;22;20002;-76
2021/01/08 12:55:32;;;;;;;8.05;4.85;;;;;;;;;;6331450;22;20026;-77
2021/01/08 12:58:00;;;;;;;8.27;4.53;;;;;;;;;;6304010;22;20152;-78
2021/01/08 13:00:27;;;;;;;7.38;3.95;;;;;;;;;;6330904;22;20002;-78
2021/01/08 13:02:53;;;;;;;8.77;5.63;;;;;;;;;;6330782;22;20030;-76
2021/01/08 13:05:19;;;;;;;23.05;13.25;;;;;;;;;;6331659;22;20044;-78
2021/01/08 13:07:46;;;;;;;7.97;4.43;;;;;;;;;;6303107;22;20063;-76
2021/01/08 13:10:12;;;;;;;16.88;8.13;;;;;;;;;;6331032;22;20447;-78
2021/01/08 13:12:38;;;;;;;10.63;5.68;;;;;;;;;;6331789;22;20018;-78
2021/01/08 13:15:05;;;;;;;10.10;6.15;;;;;;;;;;6331277;22;20327;-77
2021/01/08 13:17:31;;;;;;;9.48;4.90;;;;;;;;;;6331843;22;20029;-79
2021/01/08 13:19:58;;;;;;;8.55;4.50;;;;;;;;;;6331735;22;19995;-78
2021/01/08 13:22:24;;;;;;;;;;;;;;;;;;6331611;22;19999;-78
2021/01/08 13:24:50;;;;;;;14.73;7.45;;;;;;;;;;6303354;22;19898;-79
2021/01/08 13:27:16;;;;;;;11.63;5.63;;;;;;;;;;6331969;22;19999;-78
2021/01/08 13:29:43;;;;;;;11.02;6.30;;;;;;;;;;6303470;22;20014;-78
2021/01/08 13:32:09;;;;;;;10.20;4.78;;;;;;;;;;6331584;22;20086;-78
2021/01/08 13:34:35;;;;;;;9.52;4.57;;;;;;;;;;6330852;22;20088;-78
2021/01/08 13:37:01;;;;;;;10.63;5.68;;;;;;;;;;6331343;22;20140;-79
2021/01/08 13:39:28;;;;;;;10.63;5.45;;;;;;;;;;6332224;22;19998;-78
2021/01/08 13:42:04;;;;;;;10.45;5.82;;;;;;;;;;6303253;22;20072;-79
2021/01/08 13:44:30;;;;;;;10.52;4.80;;;;;;;;;;6303919;22;20095;-79
2021/01/08 13:46:56;;;;;;;11.45;7.20;;;;;;;;;;6332373;22;20048;-78
2021/01/08 13:49:22;;;;;;;12.88;5.40;;;;;;;;;;6304354;22;20006;-78
2021/01/08 13:51:48;;;;;;;56.50;25.35;;;;;;;;;;6331673;22;20038;-78
2021/01/08 13:54:14;;;;;;;24.23;11.75;;;;;;;;;;6330164;22;20085;-79
2021/01/08 13:56:41;;;;;;;9.73;5.25;;;;;;;;;;6329485;22;19998;-79
2021/01/08 13:59:07;;;;;;;14.43;5.90;;;;;;;;;;6332385;22;19999;-78
2021/01/08 14:01:33;;;;;;;11.23;5.43;;;;;;;;;;6331450;22;20455;-78
2021/01/08 14:03:59;;;;;;;10.80;5.75;;;;;;;;;;6332301;22;20478;-79
2021/01/08 14:06:28;;;;;;;11.48;5.30;;;;;;;;;;6331594;22;20019;-78
2021/01/08 14:08:55;;;;;;;10.70;6.00;;;;;;;;;;6331965;22;20011;-79
2021/01/08 14:11:31;;;;;;;9.50;5.63;;;;;;;;;;6330783;22;20086;-80
2021/01/08 14:13:58;;;;;;;11.20;5.65;;;;;;;;;;6329956;22;20306;-80
2021/01/08 14:16:25;;;;;;;9.02;5.15;;;;;;;;;;6330195;22;20009;-78
2021/01/08 14:18:51;;;;;;;8.10;5.15;;;;;;;;;;6330414;22;20002;-78
2021/01/08 14:21:21;;;;;;;8.55;5.20;;;;;;;;;;6329739;22;20650;-78
2021/01/08 14:23:47;;;;;;;10.88;6.22;;;;;;;;;;6331792;22;20320;-78
2021/01/08 14:26:19;;;;;;;9.43;5.75;;;;;;;;;;6329681;22;20056;-78
2021/01/08 14:28:45;;;;;;;9.73;5.20;;;;;;;;;;6330588;22;20002;-79
2021/01/08 14:31:11;;;;;;;10.13;5.35;;;;;;;;;;6330347;22;20060;-77